createdAt,value
2023-02-22T00:03:36.170Z,5.00
2023-02-22T00:08:30.614Z,5.18
2023-02-22T00:13:25.518Z,4.70
2023-02-22T00:18:18.754Z,4.00
2023-02-22T00:23:19.931Z,3.95
2023-02-22T00:28:12.096Z,3.75
2023-02-22T00:33:06.140Z,3.38
2023-02-22T00:38:00.275Z,4.38
2023-02-22T00:42:52.929Z,2.47
2023-02-22T00:47:44.661Z,4.50
2023-02-22T00:52:37.695Z,4.63
2023-02-22T00:57:29.426Z,2.55
2023-02-22T01:02:21.277Z,3.80
2023-02-22T01:07:14.432Z,4.57
2023-02-22T01:12:06.457Z,4.22
2023-02-22T01:16:58.221Z,4.18
2023-02-22T01:21:50.377Z,2.60
2023-02-22T01:26:50.346Z,3.63
2023-02-22T01:31:44.239Z,4.57
2023-02-22T01:36:35.994Z,3.90
2023-02-22T01:41:27.739Z,3.78
2023-02-22T01:46:21.009Z,2.80
2023-02-22T01:51:41.334Z,2.75
2023-02-22T01:56:37.036Z,4.32
2023-02-22T02:01:29.840Z,2.85
2023-02-22T02:06:22.035Z,4.75
2023-02-22T02:11:14.264Z,2.80
2023-02-22T02:16:06.423Z,3.03
2023-02-22T02:21:39.649Z,3.45
2023-02-22T02:26:49.654Z,3.38
2023-02-22T02:32:00.627Z,6.03
2023-02-22T02:37:26.915Z,3.10
2023-02-22T02:42:23.179Z,3.03
2023-02-22T02:47:24.353Z,3.47
2023-02-22T02:52:20.009Z,3.40
2023-02-22T02:57:11.839Z,3.65
2023-02-22T03:02:13.319Z,3.25
2023-02-22T03:07:39.210Z,2.53
2023-02-22T03:13:05.116Z,6.43
2023-02-22T03:18:07.731Z,3.58
2023-02-22T03:23:07.315Z,3.78
2023-02-22T03:28:03.645Z,3.20
2023-02-22T03:33:09.167Z,4.00
2023-02-22T03:38:04.215Z,3.85
2023-02-22T03:43:02.577Z,3.92
2023-02-22T03:48:04.742Z,4.22
2023-02-22T03:52:59.203Z,3.72
2023-02-22T03:57:56.726Z,4.05
2023-02-22T04:02:49.278Z,5.13
2023-02-22T04:07:42.400Z,4.57
2023-02-22T04:12:34.882Z,4.45
2023-02-22T04:17:26.657Z,4.50
2023-02-22T04:22:19.073Z,3.58
2023-02-22T04:27:10.988Z,4.47
2023-02-22T04:32:02.710Z,3.40
2023-02-22T04:36:54.533Z,4.82
2023-02-22T04:41:47.571Z,5.15
2023-02-22T04:46:39.329Z,5.10
2023-02-22T04:51:31.401Z,4.85
2023-02-22T04:56:23.541Z,5.43
2023-02-22T05:01:16.899Z,4.90
2023-02-22T05:06:11.882Z,5.28
2023-02-22T05:11:03.672Z,6.72
2023-02-22T05:15:55.365Z,6.68
2023-02-22T05:20:47.108Z,5.90
2023-02-22T05:25:38.852Z,6.18
2023-02-22T05:30:34.409Z,7.50
2023-02-22T05:35:26.862Z,8.02
2023-02-22T05:40:26.425Z,7.05
2023-02-22T05:45:20.161Z,7.57
2023-02-22T05:50:14.447Z,7.10
2023-02-22T05:55:07.770Z,9.77
2023-02-22T05:59:59.753Z,10.85
2023-02-22T06:04:53.852Z,11.75
2023-02-22T06:09:45.546Z,9.45
2023-02-22T06:14:37.279Z,11.63
2023-02-22T06:19:29.049Z,13.30
2023-02-22T06:24:21.631Z,10.27
2023-02-22T06:29:13.841Z,13.05
2023-02-22T06:34:05.488Z,13.45
2023-02-22T06:38:57.745Z,11.98
2023-02-22T06:43:49.414Z,15.85
2023-02-22T06:48:41.064Z,15.27
2023-02-22T06:53:32.694Z,13.45
2023-02-22T06:58:24.358Z,18.38
2023-02-22T07:03:16.566Z,16.95
2023-02-22T07:08:11.023Z,15.48
2023-02-22T07:13:04.496Z,14.75
2023-02-22T07:17:56.502Z,13.02
2023-02-22T07:22:49.521Z,12.77
2023-02-22T07:27:42.500Z,12.95
2023-02-22T07:32:34.384Z,14.18
2023-02-22T07:37:26.081Z,11.15
2023-02-22T07:42:17.838Z,12.25
2023-02-22T07:47:12.684Z,10.40
2023-02-22T07:52:04.517Z,8.68
2023-02-22T07:56:56.235Z,8.77
2023-02-22T08:01:50.452Z,8.63
2023-02-22T08:06:42.134Z,8.85
2023-02-22T08:11:33.956Z,5.78
2023-02-22T08:16:25.667Z,6.20
2023-02-22T08:21:18.307Z,6.13
2023-02-22T08:26:15.713Z,6.13
2023-02-22T08:31:08.906Z,4.23
2023-02-22T08:36:01.744Z,5.07
2023-02-22T08:40:53.750Z,3.92
2023-02-22T08:45:46.443Z,3.72
2023-02-22T08:50:38.272Z,6.45
2023-02-22T08:55:36.026Z,3.50
2023-02-22T09:00:29.701Z,2.92
2023-02-22T09:05:21.553Z,3.53
2023-02-22T09:10:15.662Z,5.53
2023-02-22T09:15:07.764Z,2.05
2023-02-22T09:19:59.499Z,1.40
2023-02-22T09:24:52.777Z,7.00
2023-02-22T09:29:44.371Z,0.82
2023-02-22T09:34:36.063Z,1.10
2023-02-22T09:39:27.904Z,0.47
2023-02-22T09:44:28.353Z,1.20
2023-02-22T09:49:39.139Z,0.35
2023-02-22T09:54:38.521Z,0.75
2023-02-22T09:59:37.630Z,1.10
2023-02-22T10:04:47.892Z,3.72
2023-02-22T10:09:43.205Z,0.40
2023-02-22T10:14:44.193Z,1.27
2023-02-22T10:19:57.741Z,0.50
2023-02-22T10:25:04.997Z,1.85
2023-02-22T10:30:23.472Z,0.82
2023-02-22T10:35:37.507Z,0.80
2023-02-22T10:40:32.545Z,4.82
2023-02-22T10:45:28.543Z,1.90
2023-02-22T10:50:21.026Z,2.72
2023-02-22T10:55:16.095Z,2.50
2023-02-22T11:00:30.700Z,0.70
2023-02-22T11:05:38.488Z,1.60
2023-02-22T11:10:38.781Z,1.20
2023-02-22T11:15:31.351Z,0.90
2023-02-22T11:20:29.606Z,1.55
2023-02-22T11:25:28.918Z,2.05
2023-02-22T11:30:29.217Z,2.00
2023-02-22T11:35:32.638Z,2.33
2023-02-22T11:40:24.415Z,2.35
2023-02-22T11:45:23.859Z,0.60
2023-02-22T11:50:38.488Z,1.45
2023-02-22T11:55:43.682Z,4.82
2023-02-22T12:00:58.791Z,1.70
2023-02-22T12:06:24.973Z,2.85
2023-02-22T12:11:23.330Z,2.28
2023-02-22T12:16:32.089Z,0.82
2023-02-22T12:21:26.068Z,1.30
2023-02-22T12:26:40.010Z,2.08
2023-02-22T12:31:41.762Z,2.72
2023-02-22T12:36:40.332Z,1.63
2023-02-22T12:41:39.117Z,1.83
2023-02-22T12:46:36.706Z,4.72
2023-02-22T12:51:29.540Z,3.17
2023-02-22T12:56:28.158Z,4.18
2023-02-22T13:01:30.282Z,1.55
2023-02-22T13:06:51.119Z,3.17
2023-02-22T13:11:52.915Z,2.90
2023-02-22T13:17:11.002Z,2.35
2023-02-22T13:22:42.381Z,2.60
2023-02-22T13:27:40.746Z,1.77
2023-02-22T13:32:56.551Z,2.83
2023-02-22T13:37:48.132Z,1.48
2023-02-22T13:42:51.698Z,3.30
2023-02-22T13:48:24.498Z,3.60
2023-02-22T13:53:27.443Z,5.00
2023-02-22T13:58:19.097Z,3.78
2023-02-22T14:03:13.442Z,2.70
2023-02-22T14:08:06.032Z,4.38
2023-02-22T14:13:05.371Z,3.25
2023-02-22T14:17:56.944Z,3.17
2023-02-22T14:22:50.810Z,2.60
2023-02-22T14:27:42.756Z,4.95
2023-02-22T14:32:35.599Z,6.88
2023-02-22T14:37:31.167Z,4.80
2023-02-22T14:42:25.882Z,5.78
2023-02-22T14:47:29.661Z,3.30
2023-02-22T14:52:28.511Z,5.05
2023-02-22T14:57:29.564Z,7.15
2023-02-22T15:02:26.080Z,5.70
2023-02-22T15:07:31.011Z,9.75
2023-02-22T15:12:31.416Z,5.22
2023-02-22T15:17:25.045Z,9.93
2023-02-22T15:22:32.539Z,6.78
2023-02-22T15:27:24.360Z,14.68
2023-02-22T15:32:53.432Z,8.07
2023-02-22T15:38:11.489Z,8.43
2023-02-22T15:43:10.654Z,4.18
2023-02-22T15:48:03.416Z,9.85
2023-02-22T15:53:02.435Z,4.28
2023-02-22T15:57:54.451Z,3.38
2023-02-22T16:02:46.582Z,6.15
2023-02-22T16:07:50.316Z,5.05
2023-02-22T16:12:42.173Z,2.50
2023-02-22T16:18:02.418Z,6.88
2023-02-22T16:22:57.786Z,8.18
2023-02-22T16:28:01.607Z,2.13
2023-02-22T16:32:56.255Z,7.57
2023-02-22T16:37:50.963Z,4.25
2023-02-22T16:42:42.565Z,4.45
2023-02-22T16:47:34.187Z,4.10
2023-02-22T16:52:28.267Z,3.35
2023-02-22T16:57:22.735Z,4.28
2023-02-22T17:02:15.634Z,9.15
2023-02-22T17:07:09.367Z,4.38
2023-02-22T17:12:02.351Z,1.48
2023-02-22T17:16:53.970Z,1.10
2023-02-22T17:21:45.835Z,1.58
2023-02-22T17:26:37.463Z,1.25
2023-02-22T17:31:30.608Z,0.57
2023-02-22T17:36:23.618Z,3.33
2023-02-22T17:41:15.462Z,0.32
2023-02-22T17:46:08.186Z,0.45
2023-02-22T17:51:04.391Z,0.98
2023-02-22T17:55:55.997Z,0.90
2023-02-22T18:00:49.930Z,0.50
2023-02-22T18:05:47.387Z,0.52
2023-02-22T18:10:40.050Z,1.00
2023-02-22T18:15:35.731Z,1.00
2023-02-22T18:20:31.238Z,1.05
2023-02-22T18:25:22.885Z,0.75
2023-02-22T18:30:14.611Z,0.80
2023-02-22T18:35:07.425Z,2.42
2023-02-22T18:39:59.732Z,0.70
2023-02-22T18:44:52.730Z,0.98
2023-02-22T18:49:44.500Z,0.40
2023-02-22T18:54:38.536Z,1.73
2023-02-22T18:59:30.267Z,0.30
2023-02-22T19:04:22.030Z,0.50
2023-02-22T19:09:13.679Z,1.60
2023-02-22T19:14:05.357Z,0.93
2023-02-22T19:18:58.336Z,0.70
2023-02-22T19:23:51.014Z,1.17
2023-02-22T19:28:42.621Z,1.45
2023-02-22T19:33:34.226Z,2.17
2023-02-22T19:38:25.934Z,1.70
2023-02-22T19:43:17.566Z,1.42
2023-02-22T19:48:09.158Z,0.73
2023-02-22T19:53:00.787Z,2.13
2023-02-22T19:57:52.448Z,2.10
2023-02-22T20:02:44.008Z,1.50
2023-02-22T20:07:36.614Z,3.97
2023-02-22T20:12:28.228Z,1.50
2023-02-22T20:17:19.877Z,1.92
2023-02-22T20:22:11.888Z,1.40
2023-02-22T20:27:03.601Z,0.70
2023-02-22T20:31:57.874Z,2.67
2023-02-22T20:36:49.615Z,1.25
2023-02-22T20:41:43.618Z,1.05
2023-02-22T20:46:38.412Z,2.00
2023-02-22T20:51:30.677Z,1.73
2023-02-22T20:56:24.262Z,2.53
2023-02-22T21:01:19.526Z,5.00
2023-02-22T21:06:15.652Z,1.23
2023-02-22T21:11:15.375Z,0.75
2023-02-22T21:16:10.405Z,2.58
2023-02-22T21:21:10.460Z,2.25
2023-02-22T21:26:02.229Z,4.97
2023-02-22T21:35:49.488Z,2.80
2023-02-22T21:40:41.985Z,1.33
2023-02-22T21:45:35.417Z,2.80
2023-02-22T21:50:30.198Z,1.60
2023-02-22T21:55:22.802Z,2.78
2023-02-22T22:00:18.588Z,1.50
2023-02-22T22:05:10.229Z,1.80
2023-02-22T22:10:03.163Z,4.28
2023-02-22T22:14:55.384Z,1.35
2023-02-22T22:19:49.077Z,0.88
2023-02-22T22:24:45.704Z,1.67
2023-02-22T22:29:37.619Z,1.35
2023-02-22T22:34:29.886Z,1.27
2023-02-22T22:39:21.621Z,3.42
2023-02-22T22:44:15.833Z,2.10
2023-02-22T22:49:10.276Z,2.38
2023-02-22T22:54:02.381Z,1.30
2023-02-22T22:58:58.977Z,1.15
2023-02-22T23:03:58.259Z,2.25
2023-02-22T23:09:10.414Z,1.02
2023-02-22T23:14:04.865Z,2.13
2023-02-22T23:18:57.091Z,0.82
2023-02-22T23:23:52.550Z,3.00
2023-02-22T23:28:46.336Z,1.88
2023-02-22T23:33:38.514Z,1.58
2023-02-22T23:38:31.611Z,4.35
2023-02-22T23:43:25.785Z,0.70
2023-02-22T23:48:20.665Z,3.00
2023-02-22T23:53:15.337Z,2.33
2023-02-22T23:58:07.225Z,2.28
